createdAt,value
2023-05-06T00:01:09.680Z,18.79
2023-05-06T00:06:11.688Z,18.74
2023-05-06T00:11:13.828Z,18.68
2023-05-06T00:16:15.922Z,18.67
2023-05-06T00:21:17.655Z,18.68
2023-05-06T00:26:19.423Z,18.68
2023-05-06T00:31:21.089Z,18.67
2023-05-06T00:36:22.718Z,18.67
2023-05-06T00:41:24.461Z,18.61
2023-05-06T00:46:26.320Z,18.58
2023-05-06T00:51:28.386Z,18.58
2023-05-06T00:56:30.044Z,18.57
2023-05-06T01:01:31.944Z,18.55
2023-05-06T01:06:53.649Z,18.53
2023-05-06T01:11:57.786Z,18.53
2023-05-06T01:17:07.073Z,18.54
2023-05-06T01:22:11.513Z,18.53
2023-05-06T01:27:14.519Z,18.50
2023-05-06T01:32:19.300Z,18.47
2023-05-06T01:37:42.361Z,18.44
2023-05-06T01:42:50.575Z,18.37
2023-05-06T01:47:53.973Z,18.35
2023-05-06T01:52:58.999Z,18.31
2023-05-06T01:58:01.056Z,18.25
2023-05-06T02:03:06.819Z,18.24
2023-05-06T02:08:11.003Z,18.21
2023-05-06T02:13:13.234Z,18.16
2023-05-06T02:18:17.303Z,18.14
2023-05-06T02:23:19.942Z,18.09
2023-05-06T02:28:21.599Z,18.05
2023-05-06T02:33:26.519Z,18.01
2023-05-06T02:38:30.302Z,17.97
2023-05-06T02:43:34.192Z,17.94
2023-05-06T02:48:36.200Z,17.92
2023-05-06T02:53:38.870Z,17.87
2023-05-06T02:58:40.778Z,17.86
2023-05-06T03:03:42.627Z,17.88
2023-05-06T03:08:44.240Z,17.85
2023-05-06T03:13:47.129Z,17.80
2023-05-06T03:18:51.893Z,17.76
2023-05-06T03:23:55.986Z,17.73
2023-05-06T03:29:00.965Z,17.66
2023-05-06T03:34:03.391Z,17.61
2023-05-06T03:39:06.966Z,17.53
2023-05-06T03:44:13.098Z,17.51
2023-05-06T03:49:15.592Z,17.41
2023-05-06T03:54:20.009Z,17.33
2023-05-06T03:59:21.988Z,17.28
2023-05-06T04:04:27.447Z,17.18
2023-05-06T04:09:34.437Z,17.15
2023-05-06T04:14:41.175Z,17.16
2023-05-06T04:19:44.056Z,17.10
2023-05-06T04:24:45.884Z,17.06
2023-05-06T04:29:48.356Z,16.98
2023-05-06T04:34:52.184Z,16.96
2023-05-06T04:39:54.480Z,16.97
2023-05-06T04:44:59.072Z,16.92
2023-05-06T04:50:07.885Z,16.96
2023-05-06T04:55:11.582Z,16.92
2023-05-06T05:00:23.736Z,16.90
2023-05-06T05:05:28.702Z,16.90
2023-05-06T05:10:33.825Z,16.89
2023-05-06T05:15:42.385Z,16.92
2023-05-06T05:20:47.425Z,16.98
2023-05-06T05:25:49.977Z,17.03
2023-05-06T05:30:52.286Z,17.07
2023-05-06T05:35:54.619Z,17.10
2023-05-06T05:41:00.820Z,17.11
2023-05-06T05:46:09.760Z,17.10
2023-05-06T05:51:17.049Z,17.08
2023-05-06T05:56:21.524Z,17.08
2023-05-06T06:01:27.837Z,17.11
2023-05-06T06:06:35.311Z,17.17
2023-05-06T06:11:42.615Z,17.23
2023-05-06T06:16:52.061Z,17.24
2023-05-06T06:21:59.369Z,17.27
2023-05-06T06:27:08.685Z,17.35
2023-05-06T06:32:15.849Z,17.41
2023-05-06T06:37:25.146Z,17.42
2023-05-06T06:42:32.837Z,17.38
2023-05-06T06:47:57.493Z,17.40
2023-05-06T06:53:06.227Z,17.48
2023-05-06T06:58:13.698Z,17.52
2023-05-06T07:03:21.743Z,17.54
2023-05-06T07:08:28.243Z,17.52
2023-05-06T07:13:34.502Z,17.52
2023-05-06T07:18:42.149Z,17.53
2023-05-06T07:23:46.112Z,17.63
2023-05-06T07:28:47.717Z,17.69
2023-05-06T07:33:50.547Z,17.73
2023-05-06T07:38:56.544Z,17.76
2023-05-06T07:44:03.712Z,17.81
2023-05-06T07:49:11.336Z,17.92
2023-05-06T07:54:19.985Z,17.98
2023-05-06T07:59:28.399Z,18.02
2023-05-06T08:04:35.374Z,18.10
2023-05-06T08:09:41.786Z,18.16
2023-05-06T08:14:49.391Z,18.21
2023-05-06T08:19:55.462Z,18.28
2023-05-06T08:24:58.765Z,18.32
2023-05-06T08:30:02.672Z,18.38
2023-05-06T08:35:10.891Z,18.47
2023-05-06T08:40:16.841Z,18.54
2023-05-06T08:45:23.528Z,18.63
2023-05-06T08:50:29.786Z,18.79
2023-05-06T08:55:37.505Z,18.96
2023-05-06T09:00:44.596Z,19.12
2023-05-06T09:05:51.269Z,19.23
2023-05-06T09:10:54.854Z,19.35
2023-05-06T09:15:59.865Z,19.36
2023-05-06T09:21:05.236Z,19.33
2023-05-06T09:26:12.100Z,19.35
2023-05-06T09:31:16.357Z,19.45
2023-05-06T09:36:20.715Z,19.61
2023-05-06T09:41:27.085Z,19.77
2023-05-06T09:46:32.960Z,19.89
2023-05-06T09:51:36.880Z,20.03
2023-05-06T09:56:39.992Z,20.10
2023-05-06T10:01:43.756Z,20.14
2023-05-06T10:06:51.615Z,20.22
2023-05-06T10:11:58.371Z,20.34
2023-05-06T10:17:08.143Z,20.46
2023-05-06T10:22:22.801Z,20.65
2023-05-06T10:27:27.375Z,20.72
2023-05-06T10:32:33.335Z,20.81
2023-05-06T10:37:41.045Z,20.86
2023-05-06T10:42:45.392Z,20.87
2023-05-06T10:47:59.977Z,20.90
2023-05-06T10:53:05.458Z,20.91
2023-05-06T10:58:15.250Z,20.99
2023-05-06T11:03:26.675Z,21.02
2023-05-06T11:08:34.302Z,21.10
2023-05-06T11:13:41.186Z,21.20
2023-05-06T11:18:45.112Z,21.30
2023-05-06T11:23:56.316Z,21.45
2023-05-06T11:29:04.550Z,21.59
2023-05-06T11:34:13.405Z,21.68
2023-05-06T11:39:22.265Z,21.71
2023-05-06T11:44:31.254Z,21.82
2023-05-06T11:49:41.924Z,21.94
2023-05-06T11:54:46.327Z,22.02
2023-05-06T11:59:56.036Z,22.10
2023-05-06T12:05:05.775Z,22.21
2023-05-06T12:10:15.517Z,22.31
2023-05-06T12:15:22.500Z,22.31
2023-05-06T12:20:28.651Z,22.32
2023-05-06T12:25:35.625Z,22.33
2023-05-06T12:30:42.444Z,22.37
2023-05-06T12:35:45.632Z,22.42
2023-05-06T12:40:56.688Z,22.39
2023-05-06T12:46:11.057Z,22.31
2023-05-06T12:51:19.691Z,22.25
2023-05-06T12:56:24.630Z,22.23
2023-05-06T13:01:31.262Z,22.22
2023-05-06T13:06:34.627Z,22.31
2023-05-06T13:11:39.720Z,22.43
2023-05-06T13:16:47.174Z,22.57
2023-05-06T13:21:53.249Z,22.73
2023-05-06T13:26:58.733Z,22.81
2023-05-06T13:32:07.095Z,22.91
2023-05-06T13:37:14.148Z,22.98
2023-05-06T13:42:20.883Z,23.02
2023-05-06T13:47:29.951Z,23.04
2023-05-06T13:52:38.151Z,23.08
2023-05-06T13:57:45.379Z,23.20
2023-05-06T14:02:53.260Z,23.20
2023-05-06T14:08:00.901Z,23.37
2023-05-06T14:13:08.231Z,23.46
2023-05-06T14:18:16.643Z,23.53
2023-05-06T14:23:24.301Z,23.65
2023-05-06T14:28:31.805Z,23.74
2023-05-06T14:33:40.606Z,23.88
2023-05-06T14:38:47.643Z,24.02
2023-05-06T14:43:56.590Z,24.15
2023-05-06T14:49:03.985Z,24.25
2023-05-06T14:54:13.081Z,24.36
2023-05-06T14:59:20.619Z,24.44
2023-05-06T15:04:30.393Z,24.57
2023-05-06T15:09:48.151Z,24.64
2023-05-06T15:14:51.887Z,24.70
2023-05-06T15:19:58.146Z,24.85
2023-05-06T15:25:19.316Z,24.84
2023-05-06T15:30:29.711Z,24.77
2023-05-06T15:35:38.299Z,24.77
2023-05-06T15:40:53.230Z,24.77
2023-05-06T15:46:00.204Z,24.79
2023-05-06T15:51:10.426Z,24.76
2023-05-06T15:56:18.996Z,24.74
2023-05-06T16:01:45.038Z,24.78
2023-05-06T16:06:52.464Z,24.96
2023-05-06T16:11:55.728Z,25.02
2023-05-06T16:17:01.595Z,25.12
2023-05-06T16:22:06.086Z,25.21
2023-05-06T16:27:09.305Z,25.18
2023-05-06T16:32:14.965Z,25.02
2023-05-06T16:37:22.161Z,24.90
2023-05-06T16:42:30.173Z,24.75
2023-05-06T16:47:36.899Z,24.71
2023-05-06T16:52:43.973Z,24.69
2023-05-06T16:57:50.206Z,24.77
2023-05-06T17:02:56.689Z,24.90
2023-05-06T17:08:01.904Z,25.02
2023-05-06T17:13:07.191Z,25.08
2023-05-06T17:18:13.674Z,25.12
2023-05-06T17:23:21.303Z,25.17
2023-05-06T17:28:26.777Z,25.23
2023-05-06T17:33:32.136Z,25.24
2023-05-06T17:38:40.074Z,25.19
2023-05-06T17:43:49.211Z,25.15
2023-05-06T17:48:57.228Z,25.08
2023-05-06T17:54:05.868Z,24.96
2023-05-06T17:59:13.187Z,24.84
2023-05-06T18:04:20.250Z,24.75
2023-05-06T18:09:26.415Z,24.60
2023-05-06T18:14:33.182Z,24.38
2023-05-06T18:19:40.549Z,24.15
2023-05-06T18:24:47.722Z,23.92
2023-05-06T18:29:54.507Z,23.69
2023-05-06T18:35:01.851Z,23.49
2023-05-06T18:40:11.206Z,23.29
2023-05-06T18:45:18.446Z,23.08
2023-05-06T18:50:25.365Z,22.85
2023-05-06T18:55:32.496Z,22.68
2023-05-06T19:00:41.076Z,22.51
2023-05-06T19:05:47.913Z,22.27
2023-05-06T19:10:54.578Z,22.11
2023-05-06T19:16:01.935Z,21.95
2023-05-06T19:21:09.787Z,21.81
2023-05-06T19:26:15.833Z,21.72
2023-05-06T19:31:22.382Z,21.61
2023-05-06T19:36:29.987Z,21.52
2023-05-06T19:41:38.037Z,21.43
2023-05-06T19:46:45.263Z,21.35
2023-05-06T19:51:51.937Z,21.30
2023-05-06T19:56:58.297Z,21.23
2023-05-06T20:02:06.418Z,21.14
2023-05-06T20:07:13.599Z,21.07
2023-05-06T20:12:20.282Z,21.02
2023-05-06T20:17:26.747Z,20.97
2023-05-06T20:22:34.199Z,20.94
2023-05-06T20:27:42.164Z,20.92
2023-05-06T20:32:51.432Z,20.87
2023-05-06T20:37:58.783Z,20.83
2023-05-06T20:43:06.114Z,20.81
2023-05-06T20:48:15.476Z,20.77
2023-05-06T20:53:18.942Z,20.74
2023-05-06T20:58:20.606Z,20.69
2023-05-06T21:03:23.969Z,20.64
2023-05-06T21:08:25.820Z,20.59
2023-05-06T21:13:27.674Z,20.54
2023-05-06T21:18:29.507Z,20.49
2023-05-06T21:23:31.321Z,20.45
2023-05-06T21:28:36.257Z,20.40
2023-05-06T21:33:39.345Z,20.35
2023-05-06T21:38:40.934Z,20.28
2023-05-06T21:48:44.303Z,20.20
2023-05-06T21:53:50.335Z,20.14
2023-05-06T21:58:53.451Z,20.09
2023-05-06T22:03:55.175Z,20.06
2023-05-06T22:08:56.886Z,20.00
2023-05-06T22:13:58.522Z,19.95
2023-05-06T22:19:00.667Z,19.89
2023-05-06T22:24:02.442Z,19.84
2023-05-06T22:29:04.209Z,19.77
2023-05-06T22:34:05.864Z,19.71
2023-05-06T22:39:07.413Z,19.64
2023-05-06T22:44:08.965Z,19.56
2023-05-06T22:49:10.541Z,19.49
2023-05-06T22:54:12.210Z,19.40
2023-05-06T22:59:13.871Z,19.35
2023-05-06T23:04:15.543Z,19.28
2023-05-06T23:09:17.285Z,19.23
2023-05-06T23:14:19.472Z,19.15
2023-05-06T23:19:21.727Z,19.09
2023-05-06T23:24:23.335Z,19.02
2023-05-06T23:29:24.909Z,18.98
2023-05-06T23:34:27.435Z,18.93
2023-05-06T23:39:29.135Z,18.88
2023-05-06T23:44:30.786Z,18.82
2023-05-06T23:49:32.373Z,18.75
2023-05-06T23:54:34.016Z,18.71
2023-05-06T23:59:35.939Z,18.65
